createdAt,value
2023-03-06T00:02:08.172Z,9.90
2023-03-06T00:04:36.159Z,9.80
2023-03-06T00:07:04.165Z,9.70
2023-03-06T00:09:32.231Z,9.70
2023-03-06T00:12:00.233Z,9.70
2023-03-06T00:14:29.638Z,9.70
2023-03-06T00:16:57.650Z,9.80
2023-03-06T00:19:25.685Z,9.80
2023-03-06T00:21:54.708Z,9.80
2023-03-06T00:24:22.753Z,9.80
2023-03-06T00:26:51.011Z,9.80
2023-03-06T00:29:19.049Z,9.90
2023-03-06T00:31:48.433Z,9.90
2023-03-06T00:34:16.455Z,9.80
2023-03-06T00:36:44.436Z,9.80
2023-03-06T00:39:12.631Z,9.70
2023-03-06T00:41:40.654Z,9.70
2023-03-06T00:44:08.701Z,9.70
2023-03-06T00:46:36.728Z,9.80
2023-03-06T00:49:06.288Z,9.70
2023-03-06T00:51:34.295Z,9.80
2023-03-06T00:54:02.309Z,9.80
2023-03-06T00:56:30.895Z,9.90
2023-03-06T00:58:58.898Z,9.90
2023-03-06T01:01:26.920Z,9.80
2023-03-06T01:03:54.981Z,9.90
2023-03-06T01:06:24.384Z,9.80
2023-03-06T01:08:52.419Z,9.80
2023-03-06T01:11:20.422Z,9.70
2023-03-06T01:13:48.449Z,9.70
2023-03-06T01:16:18.736Z,9.80
2023-03-06T01:18:52.771Z,9.80
2023-03-06T01:21:20.921Z,9.80
2023-03-06T01:23:50.320Z,9.80
2023-03-06T01:26:18.457Z,9.80
2023-03-06T01:28:46.506Z,9.90
2023-03-06T01:31:15.821Z,9.90
2023-03-06T01:33:43.961Z,9.80
2023-03-06T01:36:13.023Z,9.80
2023-03-06T01:38:41.075Z,9.80
2023-03-06T01:41:15.589Z,9.70
2023-03-06T01:43:44.270Z,9.60
2023-03-06T01:46:24.432Z,9.50
2023-03-06T01:48:54.641Z,9.60
2023-03-06T01:51:22.793Z,9.60
2023-03-06T01:53:50.867Z,9.60
2023-03-06T01:56:20.274Z,9.60
2023-03-06T01:58:49.664Z,9.70
2023-03-06T02:01:17.811Z,9.70
2023-03-06T02:03:47.472Z,9.80
2023-03-06T02:06:19.724Z,9.70
2023-03-06T02:08:47.821Z,9.70
2023-03-06T02:11:17.532Z,9.70
2023-03-06T02:13:47.093Z,9.70
2023-03-06T02:16:15.146Z,9.60
2023-03-06T02:18:43.403Z,9.60
2023-03-06T02:21:12.700Z,9.60
2023-03-06T02:23:45.775Z,9.70
2023-03-06T02:26:15.223Z,9.70
2023-03-06T02:28:43.406Z,9.70
2023-03-06T02:31:13.559Z,9.80
2023-03-06T02:33:42.385Z,9.80
2023-03-06T02:36:12.209Z,9.80
2023-03-06T02:38:45.862Z,9.80
2023-03-06T02:41:15.223Z,9.80
2023-03-06T02:43:43.433Z,9.70
2023-03-06T02:46:11.641Z,9.60
2023-03-06T02:48:39.762Z,9.60
2023-03-06T02:51:07.862Z,9.60
2023-03-06T02:53:35.924Z,9.60
2023-03-06T02:56:04.023Z,9.80
2023-03-06T02:58:33.447Z,9.70
2023-03-06T03:01:01.522Z,9.80
2023-03-06T03:03:29.643Z,9.80
2023-03-06T03:05:57.686Z,9.70
2023-03-06T03:08:25.713Z,9.80
2023-03-06T03:10:53.780Z,9.70
2023-03-06T03:13:21.794Z,9.80
2023-03-06T03:16:00.361Z,9.70
2023-03-06T03:18:28.518Z,9.60
2023-03-06T03:20:56.595Z,9.60
2023-03-06T03:23:24.765Z,9.70
2023-03-06T03:25:52.901Z,9.70
2023-03-06T03:28:21.157Z,9.60
2023-03-06T03:30:49.339Z,9.70
2023-03-06T03:33:18.781Z,9.70
2023-03-06T03:35:46.894Z,9.80
2023-03-06T03:38:14.931Z,9.80
2023-03-06T03:40:43.098Z,9.70
2023-03-06T03:43:11.117Z,9.70
2023-03-06T03:45:39.156Z,9.70
2023-03-06T03:48:07.823Z,9.60
2023-03-06T03:50:37.339Z,9.60
2023-03-06T03:53:05.361Z,9.50
2023-03-06T03:55:33.443Z,9.40
2023-03-06T03:58:01.478Z,9.50
2023-03-06T04:00:29.540Z,9.60
2023-03-06T04:02:57.567Z,9.60
2023-03-06T04:05:25.687Z,9.70
2023-03-06T04:07:58.327Z,9.70
2023-03-06T04:10:26.416Z,9.60
2023-03-06T04:12:54.487Z,9.70
2023-03-06T04:15:22.539Z,9.80
2023-03-06T04:17:50.587Z,9.70
2023-03-06T04:20:18.970Z,9.70
2023-03-06T04:22:46.998Z,9.60
2023-03-06T04:25:16.465Z,9.60
2023-03-06T04:27:44.536Z,9.60
2023-03-06T04:30:13.462Z,9.70
2023-03-06T04:32:41.536Z,9.70
2023-03-06T04:35:10.219Z,9.70
2023-03-06T04:37:38.284Z,9.70
2023-03-06T04:40:07.250Z,9.70
2023-03-06T04:42:36.855Z,9.70
2023-03-06T04:45:05.389Z,9.70
2023-03-06T04:47:33.466Z,9.70
2023-03-06T04:50:01.536Z,9.70
2023-03-06T04:52:30.608Z,9.70
2023-03-06T04:54:59.217Z,9.60
2023-03-06T04:57:27.314Z,9.60
2023-03-06T04:59:56.842Z,9.70
2023-03-06T05:02:25.427Z,9.70
2023-03-06T05:04:54.660Z,9.70
2023-03-06T05:07:22.970Z,9.60
2023-03-06T05:09:51.263Z,9.70
2023-03-06T05:12:19.347Z,9.70
2023-03-06T05:14:48.156Z,9.70
2023-03-06T05:17:17.822Z,9.70
2023-03-06T05:19:45.895Z,9.70
2023-03-06T05:22:14.009Z,9.70
2023-03-06T05:24:42.136Z,9.60
2023-03-06T05:27:10.261Z,9.50
2023-03-06T05:29:38.294Z,9.60
2023-03-06T05:32:07.059Z,9.60
2023-03-06T05:34:36.611Z,9.70
2023-03-06T05:37:04.720Z,9.70
2023-03-06T05:39:32.831Z,9.70
2023-03-06T05:42:00.998Z,9.60
2023-03-06T05:44:32.020Z,9.70
2023-03-06T05:47:00.187Z,9.70
2023-03-06T05:49:28.439Z,9.70
2023-03-06T05:51:57.883Z,9.70
2023-03-06T05:54:26.886Z,9.70
2023-03-06T05:56:56.257Z,9.50
2023-03-06T05:59:28.002Z,9.50
2023-03-06T06:01:56.271Z,9.40
2023-03-06T06:04:24.941Z,9.40
2023-03-06T06:06:53.756Z,9.50
2023-03-06T06:09:23.475Z,9.60
2023-03-06T06:11:54.579Z,9.60
2023-03-06T06:14:22.664Z,9.60
2023-03-06T06:16:50.713Z,9.60
2023-03-06T06:19:20.289Z,9.60
2023-03-06T06:21:49.148Z,9.70
2023-03-06T06:24:17.860Z,9.70
2023-03-06T06:26:47.305Z,9.70
2023-03-06T06:29:15.338Z,9.70
2023-03-06T06:31:43.482Z,9.60
2023-03-06T06:34:11.849Z,9.40
2023-03-06T06:36:39.983Z,9.50
2023-03-06T06:39:08.088Z,9.60
2023-03-06T06:41:53.679Z,9.60
2023-03-06T06:44:25.797Z,9.60
2023-03-06T06:49:41.902Z,9.70
2023-03-06T06:52:10.085Z,9.70
2023-03-06T06:54:38.214Z,9.70
2023-03-06T06:57:06.512Z,9.70
2023-03-06T06:59:36.593Z,9.70
2023-03-06T07:02:04.789Z,9.60
2023-03-06T07:04:32.848Z,9.50
2023-03-06T07:07:01.235Z,9.50
2023-03-06T07:09:31.110Z,9.60
2023-03-06T07:12:02.080Z,9.60
2023-03-06T07:14:30.205Z,9.70
2023-03-06T07:17:02.895Z,9.60
2023-03-06T07:19:30.965Z,9.70
2023-03-06T07:22:00.166Z,9.70
2023-03-06T07:24:28.410Z,9.70
2023-03-06T07:26:56.551Z,9.60
2023-03-06T07:29:24.661Z,9.70
2023-03-06T07:31:53.233Z,9.70
2023-03-06T07:34:22.670Z,9.60
2023-03-06T07:36:51.380Z,9.50
2023-03-06T07:39:19.462Z,9.60
2023-03-06T07:41:47.598Z,9.60
2023-03-06T07:44:15.641Z,9.70
2023-03-06T07:46:43.825Z,9.70
2023-03-06T07:49:12.076Z,9.70
2023-03-06T07:51:41.480Z,9.80
2023-03-06T07:54:09.581Z,9.70
2023-03-06T07:56:37.741Z,9.70
2023-03-06T07:59:05.770Z,9.80
2023-03-06T08:01:34.109Z,9.70
2023-03-06T08:04:02.287Z,9.70
2023-03-06T08:06:30.426Z,9.70
2023-03-06T08:08:59.922Z,9.60
2023-03-06T08:11:28.774Z,9.60
2023-03-06T08:13:57.007Z,9.60
2023-03-06T08:16:26.219Z,9.60
2023-03-06T08:18:54.276Z,9.70
2023-03-06T08:21:23.544Z,9.70
2023-03-06T08:23:51.677Z,9.70
2023-03-06T08:26:21.933Z,9.70
2023-03-06T08:28:50.010Z,9.70
2023-03-06T08:31:25.020Z,9.70
2023-03-06T08:33:53.168Z,9.70
2023-03-06T08:36:21.398Z,9.70
2023-03-06T08:38:49.486Z,9.70
2023-03-06T08:41:17.522Z,9.70
2023-03-06T08:43:46.961Z,9.70
2023-03-06T08:46:15.068Z,9.70
2023-03-06T08:48:43.146Z,9.60
2023-03-06T08:51:11.364Z,9.70
2023-03-06T08:53:43.458Z,9.80
2023-03-06T08:56:16.555Z,9.80
2023-03-06T08:58:46.088Z,9.80
2023-03-06T09:01:15.460Z,9.80
2023-03-06T09:03:43.532Z,9.70
2023-03-06T09:06:11.595Z,9.80
2023-03-06T09:08:42.987Z,9.80
2023-03-06T09:11:11.341Z,9.70
2023-03-06T09:13:39.368Z,9.70
2023-03-06T09:16:09.547Z,9.70
2023-03-06T09:18:37.761Z,9.60
2023-03-06T09:21:06.328Z,9.60
2023-03-06T09:23:34.360Z,9.70
2023-03-06T09:26:03.251Z,9.80
2023-03-06T09:28:31.324Z,9.70
2023-03-06T09:30:59.452Z,9.80
2023-03-06T09:33:31.318Z,9.80
2023-03-06T09:35:59.656Z,9.80
2023-03-06T09:38:28.296Z,9.80
2023-03-06T09:41:04.620Z,9.80
2023-03-06T09:43:35.427Z,9.70
2023-03-06T09:46:08.328Z,9.70
2023-03-06T09:48:41.789Z,9.80
2023-03-06T09:51:11.855Z,9.80
2023-03-06T09:53:47.524Z,9.70
2023-03-06T09:56:17.308Z,9.70
2023-03-06T09:58:46.500Z,9.70
2023-03-06T10:01:17.317Z,9.70
2023-03-06T10:03:49.293Z,9.70
2023-03-06T10:06:18.994Z,9.70
2023-03-06T10:08:50.041Z,9.80
2023-03-06T10:11:21.212Z,9.80
2023-03-06T10:13:49.844Z,9.80
2023-03-06T10:16:24.739Z,9.70
2023-03-06T10:18:54.549Z,9.60
2023-03-06T10:21:33.290Z,9.60
2023-03-06T10:24:05.687Z,9.70
2023-03-06T10:26:35.171Z,9.70
2023-03-06T10:29:14.673Z,9.70
2023-03-06T10:31:44.708Z,9.80
2023-03-06T10:34:17.455Z,9.80
2023-03-06T10:36:45.534Z,9.70
2023-03-06T10:39:15.952Z,9.70
2023-03-06T10:41:45.253Z,9.70
2023-03-06T10:44:26.213Z,9.80
2023-03-06T10:46:54.830Z,9.80
2023-03-06T10:49:30.149Z,9.80
2023-03-06T10:51:59.894Z,9.80
2023-03-06T10:54:28.296Z,9.80
2023-03-06T10:56:56.416Z,9.80
2023-03-06T10:59:25.446Z,9.80
2023-03-06T11:01:54.334Z,9.80
2023-03-06T11:04:29.114Z,9.90
2023-03-06T11:07:19.442Z,9.80
2023-03-06T11:10:02.371Z,9.80
2023-03-06T11:12:32.334Z,9.90
2023-03-06T11:15:14.178Z,9.90
2023-03-06T11:17:50.378Z,9.90
2023-03-06T11:20:20.700Z,9.90
2023-03-06T11:22:50.675Z,9.90
2023-03-06T11:25:19.613Z,9.80
2023-03-06T11:27:49.791Z,9.80
2023-03-06T11:30:19.417Z,9.80
2023-03-06T11:32:50.430Z,9.80
2023-03-06T11:35:23.343Z,9.80
2023-03-06T11:37:54.069Z,9.80
2023-03-06T11:40:32.817Z,9.80
2023-03-06T11:43:03.954Z,9.80
2023-03-06T11:45:34.846Z,9.90
2023-03-06T11:48:06.556Z,9.90
2023-03-06T11:50:37.049Z,9.90
2023-03-06T11:53:06.123Z,9.90
2023-03-06T11:55:40.638Z,9.80
2023-03-06T11:58:18.993Z,9.90
2023-03-06T12:00:49.483Z,9.80
2023-03-06T12:03:34.266Z,9.90
2023-03-06T12:06:04.578Z,9.90
2023-03-06T12:08:45.110Z,10.00
2023-03-06T12:16:47.265Z,10.00
2023-03-06T12:19:25.578Z,9.90
2023-03-06T12:22:02.241Z,10.00
2023-03-06T12:24:47.419Z,10.00
2023-03-06T12:27:19.303Z,9.90
2023-03-06T12:30:11.325Z,9.90
2023-03-06T12:32:44.104Z,9.90
2023-03-06T12:35:35.736Z,9.90
2023-03-06T12:38:11.164Z,9.80
2023-03-06T12:41:04.505Z,9.80
2023-03-06T12:43:54.243Z,9.80
2023-03-06T12:46:23.336Z,9.90
2023-03-06T12:48:57.975Z,9.90
2023-03-06T12:51:26.160Z,10.00
2023-03-06T12:53:55.645Z,9.90
2023-03-06T12:56:23.700Z,10.00
2023-03-06T12:58:52.900Z,9.90
2023-03-06T13:02:00.041Z,10.00
2023-03-06T13:04:47.595Z,9.90
2023-03-06T13:07:23.010Z,9.90
2023-03-06T13:10:07.863Z,9.90
2023-03-06T13:12:54.303Z,9.90
2023-03-06T13:15:42.137Z,9.90
2023-03-06T13:18:57.594Z,9.90
2023-03-06T13:21:48.147Z,10.00
2023-03-06T13:24:17.972Z,10.00
2023-03-06T13:26:52.774Z,10.10
2023-03-06T13:29:43.366Z,10.00
2023-03-06T13:32:17.515Z,10.00
2023-03-06T13:34:46.964Z,9.90
2023-03-06T13:37:48.657Z,10.00
2023-03-06T13:40:29.786Z,9.90
2023-03-06T13:43:04.268Z,9.80
2023-03-06T13:45:34.472Z,9.90
2023-03-06T13:48:27.304Z,9.90
2023-03-06T13:50:50.549Z,10.00
2023-03-06T13:53:47.845Z,10.10
2023-03-06T13:56:54.156Z,10.10
2023-03-06T13:59:46.324Z,10.10
2023-03-06T14:02:24.883Z,10.10
2023-03-06T14:04:54.822Z,10.00
2023-03-06T14:07:29.707Z,10.00
2023-03-06T14:10:11.007Z,10.00
2023-03-06T14:12:40.391Z,9.80
2023-03-06T14:15:17.722Z,9.90
2023-03-06T14:17:53.595Z,9.90
2023-03-06T14:20:21.771Z,9.90
2023-03-06T14:22:49.764Z,10.00
2023-03-06T14:25:29.166Z,10.10
2023-03-06T14:28:05.730Z,10.10
2023-03-06T14:30:49.941Z,10.10
2023-03-06T14:33:25.270Z,10.00
2023-03-06T14:35:54.627Z,9.90
2023-03-06T14:38:23.622Z,9.90
2023-03-06T14:40:52.399Z,10.00
2023-03-06T14:43:21.657Z,10.00
2023-03-06T14:45:52.680Z,9.90
2023-03-06T14:48:20.691Z,10.00
2023-03-06T14:50:50.524Z,9.80
2023-03-06T14:53:19.650Z,9.80
2023-03-06T14:55:50.235Z,9.90
2023-03-06T14:58:19.183Z,10.00
2023-03-06T15:00:50.080Z,10.00
2023-03-06T15:03:21.466Z,10.00
2023-03-06T15:05:49.512Z,10.00
2023-03-06T15:08:20.259Z,10.00
2023-03-06T15:10:55.909Z,9.90
2023-03-06T15:13:24.847Z,10.00
2023-03-06T15:16:00.002Z,10.00
2023-03-06T15:18:33.631Z,9.80
2023-03-06T15:21:11.965Z,9.90
2023-03-06T15:23:40.930Z,9.90
2023-03-06T15:26:29.053Z,9.80
2023-03-06T15:29:09.042Z,9.90
2023-03-06T15:31:38.202Z,10.00
2023-03-06T15:34:18.650Z,10.00
2023-03-06T15:36:47.401Z,10.00
2023-03-06T15:39:29.857Z,9.90
2023-03-06T15:41:58.324Z,9.90
2023-03-06T15:44:26.426Z,9.90
2023-03-06T15:47:06.654Z,9.90
2023-03-06T15:49:37.934Z,9.90
2023-03-06T15:52:06.367Z,9.90
2023-03-06T15:54:34.508Z,9.90
2023-03-06T15:57:03.506Z,9.90
2023-03-06T15:59:33.092Z,9.90
2023-03-06T16:02:01.517Z,9.90
2023-03-06T16:04:29.602Z,10.00
2023-03-06T16:06:59.129Z,10.00
2023-03-06T16:09:27.142Z,9.90
2023-03-06T16:11:55.243Z,9.90
2023-03-06T16:14:23.915Z,9.90
2023-03-06T16:16:52.392Z,9.90
2023-03-06T16:19:26.459Z,9.90
2023-03-06T16:21:55.942Z,9.80
2023-03-06T16:24:26.228Z,9.80
2023-03-06T16:26:54.946Z,9.80
2023-03-06T16:29:25.009Z,9.90
2023-03-06T16:31:53.257Z,10.00
2023-03-06T16:34:22.421Z,9.90
2023-03-06T16:36:50.865Z,9.90
2023-03-06T16:39:19.727Z,9.90
2023-03-06T16:41:49.411Z,9.80
2023-03-06T16:44:17.886Z,9.70
2023-03-06T16:46:47.289Z,9.70
2023-03-06T16:49:17.755Z,9.80
2023-03-06T16:51:46.421Z,9.70
2023-03-06T16:54:14.881Z,9.80
2023-03-06T16:56:44.171Z,9.80
2023-03-06T16:59:14.073Z,9.80
2023-03-06T17:01:43.273Z,9.80
2023-03-06T17:04:11.595Z,9.80
2023-03-06T17:06:39.741Z,9.90
2023-03-06T17:09:07.851Z,9.90
2023-03-06T17:11:38.545Z,9.90
2023-03-06T17:14:06.966Z,9.80
2023-03-06T17:16:40.195Z,9.80
2023-03-06T17:19:08.388Z,9.80
2023-03-06T17:21:38.458Z,9.70
2023-03-06T17:24:07.241Z,9.70
2023-03-06T17:26:36.680Z,9.80
2023-03-06T17:29:06.901Z,9.70
2023-03-06T17:31:36.716Z,9.80
2023-03-06T17:34:05.030Z,9.90
2023-03-06T17:36:33.303Z,9.90
2023-03-06T17:39:02.869Z,9.90
2023-03-06T17:41:34.165Z,9.90
2023-03-06T17:44:02.799Z,9.90
2023-03-06T17:46:31.880Z,9.70
2023-03-06T17:49:01.414Z,9.80
2023-03-06T17:51:30.282Z,9.80
2023-03-06T17:53:58.350Z,9.70
2023-03-06T17:56:26.951Z,9.80
2023-03-06T17:58:55.373Z,9.90
2023-03-06T18:01:27.442Z,9.80
2023-03-06T18:03:55.612Z,9.90
2023-03-06T18:06:27.523Z,9.90
2023-03-06T18:08:55.602Z,9.90
2023-03-06T18:11:23.714Z,9.90
2023-03-06T18:13:51.793Z,9.80
2023-03-06T18:16:21.771Z,9.80
2023-03-06T18:18:52.463Z,9.80
2023-03-06T18:21:20.592Z,9.80
2023-03-06T18:23:50.087Z,9.80
2023-03-06T18:26:18.921Z,9.80
2023-03-06T18:28:48.132Z,9.70
2023-03-06T18:31:17.040Z,9.80
2023-03-06T18:33:45.280Z,9.80
2023-03-06T18:36:13.370Z,9.70
2023-03-06T18:38:43.941Z,9.80
2023-03-06T18:41:13.970Z,9.90
2023-03-06T18:43:42.096Z,9.80
2023-03-06T18:46:10.317Z,9.70
2023-03-06T18:48:38.493Z,9.70
2023-03-06T18:51:07.033Z,9.60
2023-03-06T18:53:35.123Z,9.60
2023-03-06T18:56:03.380Z,9.60
2023-03-06T18:58:32.831Z,9.60
2023-03-06T19:01:02.253Z,9.70
2023-03-06T19:03:30.629Z,9.70
2023-03-06T19:05:59.375Z,9.70
2023-03-06T19:08:27.509Z,9.70
2023-03-06T19:10:56.453Z,9.80
2023-03-06T19:13:24.630Z,9.80
2023-03-06T19:15:56.948Z,9.80
2023-03-06T19:18:25.504Z,9.70
2023-03-06T19:20:53.869Z,9.70
2023-03-06T19:23:22.262Z,9.60
2023-03-06T19:25:57.104Z,9.60
2023-03-06T19:28:25.181Z,9.70
2023-03-06T19:30:54.800Z,9.70
2023-03-06T19:33:22.863Z,9.70
2023-03-06T19:35:51.140Z,9.80
2023-03-06T19:38:19.330Z,9.80
2023-03-06T19:40:50.526Z,9.80
2023-03-06T19:43:18.764Z,9.70
2023-03-06T19:45:46.873Z,9.80
2023-03-06T19:48:17.349Z,9.70
2023-03-06T19:50:45.705Z,9.70
2023-03-06T19:53:13.820Z,9.60
2023-03-06T19:55:41.934Z,9.60
2023-03-06T19:58:11.188Z,9.70
2023-03-06T20:00:39.373Z,9.60
2023-03-06T20:03:07.452Z,9.60
2023-03-06T20:05:36.912Z,9.70
2023-03-06T20:08:05.226Z,9.70
2023-03-06T20:10:33.272Z,9.70
2023-03-06T20:13:01.336Z,9.80
2023-03-06T20:15:29.484Z,9.70
2023-03-06T20:17:57.567Z,9.70
2023-03-06T20:20:25.621Z,9.70
2023-03-06T20:22:55.079Z,9.60
2023-03-06T20:25:23.161Z,9.60
2023-03-06T20:27:51.216Z,9.70
2023-03-06T20:30:19.465Z,9.60
2023-03-06T20:32:47.588Z,9.60
2023-03-06T20:35:15.779Z,9.60
2023-03-06T20:37:43.846Z,9.60
2023-03-06T20:40:14.148Z,9.70
2023-03-06T20:42:42.837Z,9.70
2023-03-06T20:45:11.648Z,9.80
2023-03-06T20:47:47.298Z,9.70
2023-03-06T20:50:16.017Z,9.70
2023-03-06T20:52:44.077Z,9.70
2023-03-06T20:55:13.560Z,9.60
2023-03-06T20:57:41.665Z,9.60
2023-03-06T21:00:11.880Z,9.50
2023-03-06T21:02:39.957Z,9.50
2023-03-06T21:05:09.049Z,9.50
2023-03-06T21:07:37.138Z,9.50
2023-03-06T21:10:06.020Z,9.50
2023-03-06T21:12:35.458Z,9.60
2023-03-06T21:15:03.710Z,9.60
2023-03-06T21:17:31.732Z,9.60
2023-03-06T21:19:59.773Z,9.70
2023-03-06T21:22:30.241Z,9.70
2023-03-06T21:24:58.321Z,9.70
2023-03-06T21:27:26.332Z,9.60
2023-03-06T21:29:55.724Z,9.60
2023-03-06T21:32:24.090Z,9.50
2023-03-06T21:34:52.381Z,9.60
2023-03-06T21:37:20.420Z,9.60
2023-03-06T21:39:48.459Z,9.60
2023-03-06T21:42:16.547Z,9.70
2023-03-06T21:44:44.985Z,9.60
2023-03-06T21:47:14.370Z,9.50
2023-03-06T21:49:42.410Z,9.60
2023-03-06T21:52:10.435Z,9.70
2023-03-06T21:54:38.486Z,9.70
2023-03-06T21:57:06.641Z,9.70
2023-03-06T21:59:34.720Z,9.60
2023-03-06T22:02:02.768Z,9.50
2023-03-06T22:04:32.221Z,9.50
2023-03-06T22:07:00.273Z,9.60
2023-03-06T22:09:28.343Z,9.60
2023-03-06T22:11:57.351Z,9.60
2023-03-06T22:14:25.371Z,9.60
2023-03-06T22:16:53.508Z,9.60
2023-03-06T22:19:21.535Z,9.60
2023-03-06T22:21:50.937Z,9.70
2023-03-06T22:24:18.961Z,9.70
2023-03-06T22:26:46.986Z,9.70
2023-03-06T22:29:15.029Z,9.70
2023-03-06T22:31:43.396Z,9.60
2023-03-06T22:34:11.479Z,9.50
2023-03-06T22:36:39.556Z,9.60
2023-03-06T22:39:09.128Z,9.60
2023-03-06T22:41:37.171Z,9.60
2023-03-06T22:44:05.417Z,9.60
2023-03-06T22:46:33.629Z,9.60
2023-03-06T22:49:01.824Z,9.60
2023-03-06T22:51:29.923Z,9.70
2023-03-06T22:53:58.228Z,9.70
2023-03-06T22:56:27.695Z,9.70
2023-03-06T22:58:55.921Z,9.70
2023-03-06T23:01:25.887Z,9.60
2023-03-06T23:03:54.846Z,9.50
2023-03-06T23:06:24.645Z,9.50
2023-03-06T23:08:53.556Z,9.50
2023-03-06T23:11:21.870Z,9.40
2023-03-06T23:13:51.306Z,9.50
2023-03-06T23:16:19.326Z,9.50
2023-03-06T23:18:47.378Z,9.60
2023-03-06T23:21:16.649Z,9.60
2023-03-06T23:23:47.629Z,9.60
2023-03-06T23:26:15.760Z,9.60
2023-03-06T23:28:43.823Z,9.60
2023-03-06T23:31:14.116Z,9.60
2023-03-06T23:33:42.577Z,9.60
2023-03-06T23:36:11.808Z,9.60
2023-03-06T23:38:39.826Z,9.60
2023-03-06T23:41:08.665Z,9.50
2023-03-06T23:43:36.725Z,9.50
2023-03-06T23:46:05.008Z,9.50
2023-03-06T23:48:35.053Z,9.50
2023-03-06T23:51:06.432Z,9.50
2023-03-06T23:53:34.469Z,9.60
2023-03-06T23:56:02.577Z,9.60
2023-03-06T23:58:30.620Z,9.60
